sensor_id;sensor_type;location;lat;lon;timestamp;P1;durP1;ratioP1;P2;durP2;ratioP2
51438;SDS011;38816;51.142;-0.974;2023-05-07T00:00:08;324.63;;;303.30;;
51438;SDS011;38816;51.142;-0.974;2023-05-07T00:02:34;326.13;;;304.90;;
51438;SDS011;38816;51.142;-0.974;2023-05-07T00:05:00;328.00;;;306.50;;
51438;SDS011;38816;51.142;-0.974;2023-05-07T00:07:27;324.48;;;303.13;;
51438;SDS011;38816;51.142;-0.974;2023-05-07T00:09:52;319.45;;;298.30;;
51438;SDS011;38816;51.142;-0.974;2023-05-07T00:12:18;328.67;;;306.95;;
51438;SDS011;38816;51.142;-0.974;2023-05-07T00:14:43;332.67;;;310.58;;
51438;SDS011;38816;51.142;-0.974;2023-05-07T00:17:09;328.83;;;306.90;;
51438;SDS011;38816;51.142;-0.974;2023-05-07T00:19:34;332.90;;;310.75;;
51438;SDS011;38816;51.142;-0.974;2023-05-07T00:21:59;331.38;;;309.52;;
51438;SDS011;38816;51.142;-0.974;2023-05-07T00:24:25;325.05;;;303.60;;
51438;SDS011;38816;51.142;-0.974;2023-05-07T00:26:50;331.63;;;309.40;;
51438;SDS011;38816;51.142;-0.974;2023-05-07T00:29:16;333.95;;;311.45;;
51438;SDS011;38816;51.142;-0.974;2023-05-07T00:31:41;336.02;;;312.83;;
51438;SDS011;38816;51.142;-0.974;2023-05-07T00:34:06;336.65;;;314.23;;
51438;SDS011;38816;51.142;-0.974;2023-05-07T00:36:32;327.23;;;305.35;;
51438;SDS011;38816;51.142;-0.974;2023-05-07T00:38:59;333.00;;;310.55;;
51438;SDS011;38816;51.142;-0.974;2023-05-07T00:41:25;336.05;;;313.88;;
51438;SDS011;38816;51.142;-0.974;2023-05-07T00:43:51;332.45;;;310.05;;
51438;SDS011;38816;51.142;-0.974;2023-05-07T00:46:17;333.55;;;311.27;;
51438;SDS011;38816;51.142;-0.974;2023-05-07T00:48:44;344.23;;;320.70;;
51438;SDS011;38816;51.142;-0.974;2023-05-07T00:51:10;331.02;;;308.73;;
51438;SDS011;38816;51.142;-0.974;2023-05-07T00:53:36;332.65;;;310.25;;
51438;SDS011;38816;51.142;-0.974;2023-05-07T00:56:02;341.63;;;318.95;;
51438;SDS011;38816;51.142;-0.974;2023-05-07T00:58:27;341.42;;;318.52;;
51438;SDS011;38816;51.142;-0.974;2023-05-07T01:00:53;337.60;;;314.83;;
51438;SDS011;38816;51.142;-0.974;2023-05-07T01:03:18;335.42;;;312.80;;
51438;SDS011;38816;51.142;-0.974;2023-05-07T01:05:44;341.90;;;318.58;;
51438;SDS011;38816;51.142;-0.974;2023-05-07T01:08:12;336.73;;;314.35;;
51438;SDS011;38816;51.142;-0.974;2023-05-07T01:10:39;339.98;;;316.73;;
51438;SDS011;38816;51.142;-0.974;2023-05-07T01:13:07;333.58;;;311.08;;
51438;SDS011;38816;51.142;-0.974;2023-05-07T01:15:35;338.05;;;315.45;;
51438;SDS011;38816;51.142;-0.974;2023-05-07T01:18:01;334.55;;;312.08;;
51438;SDS011;38816;51.142;-0.974;2023-05-07T01:20:26;338.45;;;315.38;;
51438;SDS011;38816;51.142;-0.974;2023-05-07T01:22:53;344.40;;;321.27;;
51438;SDS011;38816;51.142;-0.974;2023-05-07T01:25:19;342.45;;;319.58;;
51438;SDS011;38816;51.142;-0.974;2023-05-07T01:27:48;346.13;;;322.38;;
51438;SDS011;38816;51.142;-0.974;2023-05-07T01:30:14;340.08;;;317.00;;
51438;SDS011;38816;51.142;-0.974;2023-05-07T01:32:59;336.80;;;314.20;;
51438;SDS011;38816;51.142;-0.974;2023-05-07T01:35:47;346.05;;;322.42;;
51438;SDS011;38816;51.142;-0.974;2023-05-07T01:38:16;335.35;;;312.85;;
51438;SDS011;38816;51.142;-0.974;2023-05-07T01:40:43;347.75;;;324.27;;
51438;SDS011;38816;51.142;-0.974;2023-05-07T01:43:08;345.65;;;322.33;;
51438;SDS011;38816;51.142;-0.974;2023-05-07T01:45:35;347.40;;;323.42;;
51438;SDS011;38816;51.142;-0.974;2023-05-07T01:48:01;347.15;;;323.95;;
51438;SDS011;38816;51.142;-0.974;2023-05-07T01:50:27;346.95;;;323.13;;
51438;SDS011;38816;51.142;-0.974;2023-05-07T01:52:53;349.90;;;326.05;;
51438;SDS011;38816;51.142;-0.974;2023-05-07T01:55:19;342.13;;;319.05;;
51438;SDS011;38816;51.142;-0.974;2023-05-07T01:57:44;341.08;;;318.00;;
51438;SDS011;38816;51.142;-0.974;2023-05-07T02:00:10;340.77;;;317.65;;
51438;SDS011;38816;51.142;-0.974;2023-05-07T02:02:35;348.02;;;324.52;;
51438;SDS011;38816;51.142;-0.974;2023-05-07T02:05:01;342.90;;;319.73;;
51438;SDS011;38816;51.142;-0.974;2023-05-07T02:07:27;345.83;;;322.17;;
51438;SDS011;38816;51.142;-0.974;2023-05-07T02:09:53;347.20;;;323.65;;
51438;SDS011;38816;51.142;-0.974;2023-05-07T02:12:20;340.35;;;317.08;;
51438;SDS011;38816;51.142;-0.974;2023-05-07T02:14:45;338.15;;;315.27;;
51438;SDS011;38816;51.142;-0.974;2023-05-07T02:17:11;344.80;;;321.30;;
51438;SDS011;38816;51.142;-0.974;2023-05-07T02:19:36;351.23;;;327.52;;
51438;SDS011;38816;51.142;-0.974;2023-05-07T02:22:02;345.50;;;322.02;;
51438;SDS011;38816;51.142;-0.974;2023-05-07T02:24:27;340.60;;;317.08;;
51438;SDS011;38816;51.142;-0.974;2023-05-07T02:26:52;342.65;;;319.48;;
51438;SDS011;38816;51.142;-0.974;2023-05-07T02:29:18;347.25;;;323.05;;
51438;SDS011;38816;51.142;-0.974;2023-05-07T02:31:43;342.52;;;318.85;;
51438;SDS011;38816;51.142;-0.974;2023-05-07T02:34:08;347.33;;;323.50;;
51438;SDS011;38816;51.142;-0.974;2023-05-07T02:36:34;343.40;;;319.88;;
51438;SDS011;38816;51.142;-0.974;2023-05-07T02:39:00;350.60;;;326.58;;
51438;SDS011;38816;51.142;-0.974;2023-05-07T02:41:25;352.17;;;328.10;;
51438;SDS011;38816;51.142;-0.974;2023-05-07T02:43:53;346.85;;;323.17;;
51438;SDS011;38816;51.142;-0.974;2023-05-07T02:46:18;347.52;;;323.08;;
51438;SDS011;38816;51.142;-0.974;2023-05-07T02:48:43;349.42;;;325.35;;
51438;SDS011;38816;51.142;-0.974;2023-05-07T02:51:09;350.75;;;327.17;;
51438;SDS011;38816;51.142;-0.974;2023-05-07T02:53:34;357.10;;;333.02;;
51438;SDS011;38816;51.142;-0.974;2023-05-07T02:56:00;358.08;;;333.08;;
51438;SDS011;38816;51.142;-0.974;2023-05-07T02:58:29;358.83;;;334.27;;
51438;SDS011;38816;51.142;-0.974;2023-05-07T03:00:54;347.40;;;322.85;;
51438;SDS011;38816;51.142;-0.974;2023-05-07T03:03:20;359.25;;;334.33;;
51438;SDS011;38816;51.142;-0.974;2023-05-07T03:05:46;352.48;;;328.13;;
51438;SDS011;38816;51.142;-0.974;2023-05-07T03:08:11;352.70;;;327.58;;
51438;SDS011;38816;51.142;-0.974;2023-05-07T03:10:38;352.55;;;327.65;;
51438;SDS011;38816;51.142;-0.974;2023-05-07T03:13:03;362.77;;;337.65;;
51438;SDS011;38816;51.142;-0.974;2023-05-07T03:15:29;358.85;;;334.45;;
51438;SDS011;38816;51.142;-0.974;2023-05-07T03:17:54;360.67;;;335.58;;
51438;SDS011;38816;51.142;-0.974;2023-05-07T03:20:20;358.33;;;333.25;;
51438;SDS011;38816;51.142;-0.974;2023-05-07T03:22:45;354.58;;;329.30;;
51438;SDS011;38816;51.142;-0.974;2023-05-07T03:25:11;359.27;;;333.80;;
51438;SDS011;38816;51.142;-0.974;2023-05-07T03:27:37;359.08;;;333.20;;
51438;SDS011;38816;51.142;-0.974;2023-05-07T03:30:03;358.15;;;333.05;;
51438;SDS011;38816;51.142;-0.974;2023-05-07T03:32:29;360.52;;;334.63;;
51438;SDS011;38816;51.142;-0.974;2023-05-07T03:34:54;358.23;;;333.23;;
51438;SDS011;38816;51.142;-0.974;2023-05-07T03:37:20;368.13;;;342.05;;
51438;SDS011;38816;51.142;-0.974;2023-05-07T03:39:46;364.15;;;338.75;;
51438;SDS011;38816;51.142;-0.974;2023-05-07T03:42:12;365.38;;;339.40;;
51438;SDS011;38816;51.142;-0.974;2023-05-07T03:44:37;367.45;;;340.98;;
51438;SDS011;38816;51.142;-0.974;2023-05-07T03:47:03;366.70;;;340.27;;
51438;SDS011;38816;51.142;-0.974;2023-05-07T03:49:29;366.05;;;339.98;;
51438;SDS011;38816;51.142;-0.974;2023-05-07T03:51:54;372.90;;;344.58;;
51438;SDS011;38816;51.142;-0.974;2023-05-07T03:54:20;366.85;;;340.58;;
51438;SDS011;38816;51.142;-0.974;2023-05-07T03:56:46;357.23;;;331.40;;
51438;SDS011;38816;51.142;-0.974;2023-05-07T03:59:12;368.95;;;342.23;;
51438;SDS011;38816;51.142;-0.974;2023-05-07T04:01:38;361.70;;;335.35;;
51438;SDS011;38816;51.142;-0.974;2023-05-07T04:04:03;360.05;;;333.10;;
51438;SDS011;38816;51.142;-0.974;2023-05-07T04:06:29;357.45;;;330.95;;
51438;SDS011;38816;51.142;-0.974;2023-05-07T04:08:54;364.65;;;337.15;;
51438;SDS011;38816;51.142;-0.974;2023-05-07T04:11:20;367.55;;;340.67;;
51438;SDS011;38816;51.142;-0.974;2023-05-07T04:13:45;365.17;;;336.50;;
51438;SDS011;38816;51.142;-0.974;2023-05-07T04:16:10;361.90;;;335.08;;
51438;SDS011;38816;51.142;-0.974;2023-05-07T04:18:36;366.45;;;339.73;;
51438;SDS011;38816;51.142;-0.974;2023-05-07T04:21:01;364.83;;;337.88;;
51438;SDS011;38816;51.142;-0.974;2023-05-07T04:23:27;359.08;;;333.45;;
51438;SDS011;38816;51.142;-0.974;2023-05-07T04:25:52;366.38;;;339.70;;
51438;SDS011;38816;51.142;-0.974;2023-05-07T04:28:19;366.30;;;335.90;;
51438;SDS011;38816;51.142;-0.974;2023-05-07T04:30:44;359.88;;;332.95;;
51438;SDS011;38816;51.142;-0.974;2023-05-07T04:33:10;366.00;;;338.63;;
51438;SDS011;38816;51.142;-0.974;2023-05-07T04:35:35;363.05;;;335.20;;
51438;SDS011;38816;51.142;-0.974;2023-05-07T04:38:01;363.42;;;333.08;;
51438;SDS011;38816;51.142;-0.974;2023-05-07T04:40:26;370.65;;;341.48;;
51438;SDS011;38816;51.142;-0.974;2023-05-07T04:42:52;361.70;;;332.13;;
51438;SDS011;38816;51.142;-0.974;2023-05-07T04:45:18;372.08;;;342.98;;
51438;SDS011;38816;51.142;-0.974;2023-05-07T04:47:43;364.13;;;333.33;;
51438;SDS011;38816;51.142;-0.974;2023-05-07T04:50:09;360.33;;;333.23;;
51438;SDS011;38816;51.142;-0.974;2023-05-07T04:52:35;370.38;;;340.63;;
51438;SDS011;38816;51.142;-0.974;2023-05-07T04:55:01;364.80;;;331.65;;
51438;SDS011;38816;51.142;-0.974;2023-05-07T04:57:26;350.45;;;324.98;;
51438;SDS011;38816;51.142;-0.974;2023-05-07T04:59:52;356.40;;;325.48;;
51438;SDS011;38816;51.142;-0.974;2023-05-07T05:02:18;354.98;;;328.63;;
51438;SDS011;38816;51.142;-0.974;2023-05-07T05:04:43;352.27;;;326.13;;
51438;SDS011;38816;51.142;-0.974;2023-05-07T05:07:09;358.50;;;330.75;;
51438;SDS011;38816;51.142;-0.974;2023-05-07T05:09:34;363.38;;;335.77;;
51438;SDS011;38816;51.142;-0.974;2023-05-07T05:12:00;356.50;;;327.50;;
51438;SDS011;38816;51.142;-0.974;2023-05-07T05:14:25;357.80;;;328.52;;
51438;SDS011;38816;51.142;-0.974;2023-05-07T05:16:50;345.52;;;319.63;;
51438;SDS011;38816;51.142;-0.974;2023-05-07T05:19:16;350.63;;;324.20;;
51438;SDS011;38816;51.142;-0.974;2023-05-07T05:21:41;346.52;;;320.02;;
51438;SDS011;38816;51.142;-0.974;2023-05-07T05:24:06;352.35;;;324.70;;
51438;SDS011;38816;51.142;-0.974;2023-05-07T05:26:32;354.95;;;329.30;;
51438;SDS011;38816;51.142;-0.974;2023-05-07T05:28:57;353.30;;;325.88;;
51438;SDS011;38816;51.142;-0.974;2023-05-07T05:31:23;347.10;;;321.02;;
51438;SDS011;38816;51.142;-0.974;2023-05-07T05:33:48;354.38;;;326.25;;
51438;SDS011;38816;51.142;-0.974;2023-05-07T05:36:13;362.17;;;333.05;;
51438;SDS011;38816;51.142;-0.974;2023-05-07T05:38:39;349.20;;;323.83;;
51438;SDS011;38816;51.142;-0.974;2023-05-07T05:41:05;349.23;;;324.70;;
51438;SDS011;38816;51.142;-0.974;2023-05-07T05:43:30;353.73;;;328.15;;
51438;SDS011;38816;51.142;-0.974;2023-05-07T05:45:56;359.23;;;334.48;;
51438;SDS011;38816;51.142;-0.974;2023-05-07T05:48:22;346.70;;;322.45;;
51438;SDS011;38816;51.142;-0.974;2023-05-07T05:50:47;351.98;;;327.70;;
51438;SDS011;38816;51.142;-0.974;2023-05-07T05:53:13;362.45;;;333.10;;
51438;SDS011;38816;51.142;-0.974;2023-05-07T05:55:38;352.77;;;328.15;;
51438;SDS011;38816;51.142;-0.974;2023-05-07T05:58:04;359.98;;;333.45;;
51438;SDS011;38816;51.142;-0.974;2023-05-07T06:00:29;349.65;;;325.27;;
51438;SDS011;38816;51.142;-0.974;2023-05-07T06:02:55;363.25;;;337.92;;
51438;SDS011;38816;51.142;-0.974;2023-05-07T06:05:20;351.35;;;326.65;;
51438;SDS011;38816;51.142;-0.974;2023-05-07T06:07:46;352.42;;;328.08;;
51438;SDS011;38816;51.142;-0.974;2023-05-07T06:10:11;349.23;;;325.02;;
51438;SDS011;38816;51.142;-0.974;2023-05-07T06:12:37;343.35;;;318.75;;
51438;SDS011;38816;51.142;-0.974;2023-05-07T06:15:02;360.35;;;335.23;;
51438;SDS011;38816;51.142;-0.974;2023-05-07T06:17:28;365.52;;;339.67;;
51438;SDS011;38816;51.142;-0.974;2023-05-07T06:19:54;366.45;;;331.77;;
51438;SDS011;38816;51.142;-0.974;2023-05-07T06:22:19;356.30;;;330.98;;
51438;SDS011;38816;51.142;-0.974;2023-05-07T06:24:44;367.25;;;341.98;;
51438;SDS011;38816;51.142;-0.974;2023-05-07T06:27:10;359.38;;;334.48;;
51438;SDS011;38816;51.142;-0.974;2023-05-07T06:29:35;355.30;;;330.95;;
51438;SDS011;38816;51.142;-0.974;2023-05-07T06:32:07;361.02;;;335.98;;
51438;SDS011;38816;51.142;-0.974;2023-05-07T06:34:33;356.55;;;331.35;;
51438;SDS011;38816;51.142;-0.974;2023-05-07T06:36:59;354.77;;;330.25;;
51438;SDS011;38816;51.142;-0.974;2023-05-07T06:39:24;363.02;;;337.83;;
51438;SDS011;38816;51.142;-0.974;2023-05-07T06:41:50;365.50;;;340.45;;
51438;SDS011;38816;51.142;-0.974;2023-05-07T06:44:15;365.98;;;340.65;;
51438;SDS011;38816;51.142;-0.974;2023-05-07T06:46:41;353.55;;;329.08;;
51438;SDS011;38816;51.142;-0.974;2023-05-07T06:49:06;365.52;;;340.58;;
51438;SDS011;38816;51.142;-0.974;2023-05-07T06:51:32;364.23;;;339.10;;
51438;SDS011;38816;51.142;-0.974;2023-05-07T06:53:57;359.83;;;335.10;;
51438;SDS011;38816;51.142;-0.974;2023-05-07T06:56:22;359.70;;;335.08;;
51438;SDS011;38816;51.142;-0.974;2023-05-07T06:58:48;359.90;;;335.00;;
51438;SDS011;38816;51.142;-0.974;2023-05-07T07:01:14;353.58;;;329.23;;
51438;SDS011;38816;51.142;-0.974;2023-05-07T07:03:40;368.98;;;343.73;;
51438;SDS011;38816;51.142;-0.974;2023-05-07T07:06:05;367.02;;;341.92;;
51438;SDS011;38816;51.142;-0.974;2023-05-07T07:08:31;361.20;;;336.55;;
51438;SDS011;38816;51.142;-0.974;2023-05-07T07:10:57;359.90;;;335.23;;
51438;SDS011;38816;51.142;-0.974;2023-05-07T07:13:22;362.10;;;337.48;;
51438;SDS011;38816;51.142;-0.974;2023-05-07T07:15:48;357.75;;;333.42;;
51438;SDS011;38816;51.142;-0.974;2023-05-07T07:18:13;359.10;;;334.83;;
51438;SDS011;38816;51.142;-0.974;2023-05-07T07:20:38;361.67;;;337.23;;
51438;SDS011;38816;51.142;-0.974;2023-05-07T07:23:04;366.90;;;342.13;;
51438;SDS011;38816;51.142;-0.974;2023-05-07T07:25:29;362.55;;;338.02;;
51438;SDS011;38816;51.142;-0.974;2023-05-07T07:27:55;350.20;;;326.52;;
51438;SDS011;38816;51.142;-0.974;2023-05-07T07:30:20;364.42;;;339.83;;
51438;SDS011;38816;51.142;-0.974;2023-05-07T07:32:45;373.10;;;348.05;;
51438;SDS011;38816;51.142;-0.974;2023-05-07T07:35:11;369.27;;;344.45;;
51438;SDS011;38816;51.142;-0.974;2023-05-07T07:37:36;372.15;;;347.05;;
51438;SDS011;38816;51.142;-0.974;2023-05-07T07:40:02;371.73;;;346.80;;
51438;SDS011;38816;51.142;-0.974;2023-05-07T07:42:28;374.63;;;349.48;;
51438;SDS011;38816;51.142;-0.974;2023-05-07T07:44:54;380.58;;;355.05;;
51438;SDS011;38816;51.142;-0.974;2023-05-07T07:47:19;376.50;;;351.20;;
51438;SDS011;38816;51.142;-0.974;2023-05-07T07:49:45;364.90;;;340.35;;
51438;SDS011;38816;51.142;-0.974;2023-05-07T07:52:10;366.40;;;341.73;;
51438;SDS011;38816;51.142;-0.974;2023-05-07T07:54:36;377.70;;;352.60;;
51438;SDS011;38816;51.142;-0.974;2023-05-07T07:57:01;373.15;;;348.17;;
51438;SDS011;38816;51.142;-0.974;2023-05-07T07:59:26;373.70;;;348.70;;
51438;SDS011;38816;51.142;-0.974;2023-05-07T08:01:52;367.75;;;343.20;;
51438;SDS011;38816;51.142;-0.974;2023-05-07T08:04:20;377.30;;;352.13;;
51438;SDS011;38816;51.142;-0.974;2023-05-07T08:06:46;362.58;;;338.30;;
51438;SDS011;38816;51.142;-0.974;2023-05-07T08:09:11;366.65;;;342.17;;
51438;SDS011;38816;51.142;-0.974;2023-05-07T08:11:36;370.45;;;345.65;;
51438;SDS011;38816;51.142;-0.974;2023-05-07T08:14:02;366.52;;;342.10;;
51438;SDS011;38816;51.142;-0.974;2023-05-07T08:16:28;363.00;;;338.85;;
51438;SDS011;38816;51.142;-0.974;2023-05-07T08:18:53;355.45;;;331.77;;
51438;SDS011;38816;51.142;-0.974;2023-05-07T08:21:19;361.75;;;337.63;;
51438;SDS011;38816;51.142;-0.974;2023-05-07T08:23:45;369.58;;;344.90;;
51438;SDS011;38816;51.142;-0.974;2023-05-07T08:26:11;371.17;;;346.08;;
51438;SDS011;38816;51.142;-0.974;2023-05-07T08:28:36;367.92;;;343.48;;
51438;SDS011;38816;51.142;-0.974;2023-05-07T08:31:02;359.23;;;335.25;;
51438;SDS011;38816;51.142;-0.974;2023-05-07T08:33:27;359.88;;;335.90;;
51438;SDS011;38816;51.142;-0.974;2023-05-07T08:35:53;355.98;;;332.27;;
51438;SDS011;38816;51.142;-0.974;2023-05-07T08:38:18;362.90;;;338.75;;
51438;SDS011;38816;51.142;-0.974;2023-05-07T08:40:43;359.33;;;335.48;;
51438;SDS011;38816;51.142;-0.974;2023-05-07T08:43:10;359.90;;;336.05;;
51438;SDS011;38816;51.142;-0.974;2023-05-07T08:45:37;349.50;;;326.33;;
51438;SDS011;38816;51.142;-0.974;2023-05-07T08:48:07;356.27;;;332.30;;
51438;SDS011;38816;51.142;-0.974;2023-05-07T08:50:35;360.90;;;336.98;;
51438;SDS011;38816;51.142;-0.974;2023-05-07T08:53:02;358.85;;;335.08;;
51438;SDS011;38816;51.142;-0.974;2023-05-07T08:55:28;349.30;;;325.98;;
51438;SDS011;38816;51.142;-0.974;2023-05-07T08:57:54;360.80;;;336.80;;
51438;SDS011;38816;51.142;-0.974;2023-05-07T09:00:20;359.17;;;335.27;;
51438;SDS011;38816;51.142;-0.974;2023-05-07T09:02:45;348.05;;;324.83;;
51438;SDS011;38816;51.142;-0.974;2023-05-07T09:05:11;359.60;;;335.95;;
51438;SDS011;38816;51.142;-0.974;2023-05-07T09:07:36;359.58;;;335.65;;
51438;SDS011;38816;51.142;-0.974;2023-05-07T09:10:02;356.92;;;333.20;;
51438;SDS011;38816;51.142;-0.974;2023-05-07T09:12:29;358.00;;;334.15;;
51438;SDS011;38816;51.142;-0.974;2023-05-07T09:14:54;362.35;;;338.38;;
51438;SDS011;38816;51.142;-0.974;2023-05-07T09:17:20;353.20;;;329.75;;
51438;SDS011;38816;51.142;-0.974;2023-05-07T09:19:45;351.60;;;328.30;;
51438;SDS011;38816;51.142;-0.974;2023-05-07T09:22:11;354.58;;;331.08;;
51438;SDS011;38816;51.142;-0.974;2023-05-07T09:24:37;358.52;;;335.08;;
51438;SDS011;38816;51.142;-0.974;2023-05-07T09:27:06;358.38;;;334.80;;
51438;SDS011;38816;51.142;-0.974;2023-05-07T09:29:33;362.60;;;338.75;;
51438;SDS011;38816;51.142;-0.974;2023-05-07T09:32:02;349.38;;;326.25;;
51438;SDS011;38816;51.142;-0.974;2023-05-07T09:34:29;341.50;;;318.95;;
51438;SDS011;38816;51.142;-0.974;2023-05-07T09:36:55;351.40;;;328.27;;
51438;SDS011;38816;51.142;-0.974;2023-05-07T09:39:21;351.00;;;327.75;;
51438;SDS011;38816;51.142;-0.974;2023-05-07T09:41:48;342.17;;;319.40;;
51438;SDS011;38816;51.142;-0.974;2023-05-07T09:44:19;347.10;;;324.13;;
51438;SDS011;38816;51.142;-0.974;2023-05-07T09:46:45;344.38;;;321.63;;
51438;SDS011;38816;51.142;-0.974;2023-05-07T09:49:22;344.58;;;321.67;;
51438;SDS011;38816;51.142;-0.974;2023-05-07T09:51:50;349.38;;;326.23;;
51438;SDS011;38816;51.142;-0.974;2023-05-07T09:54:17;345.17;;;322.48;;
51438;SDS011;38816;51.142;-0.974;2023-05-07T09:56:43;338.88;;;316.45;;
51438;SDS011;38816;51.142;-0.974;2023-05-07T09:59:13;350.42;;;327.25;;
51438;SDS011;38816;51.142;-0.974;2023-05-07T10:01:41;350.98;;;327.75;;
51438;SDS011;38816;51.142;-0.974;2023-05-07T10:04:08;352.48;;;329.15;;
51438;SDS011;38816;51.142;-0.974;2023-05-07T10:06:35;344.83;;;322.10;;
51438;SDS011;38816;51.142;-0.974;2023-05-07T10:09:01;344.05;;;321.48;;
51438;SDS011;38816;51.142;-0.974;2023-05-07T10:11:27;340.17;;;317.80;;
51438;SDS011;38816;51.142;-0.974;2023-05-07T10:13:53;339.80;;;317.65;;
51438;SDS011;38816;51.142;-0.974;2023-05-07T10:16:20;335.50;;;313.20;;
51438;SDS011;38816;51.142;-0.974;2023-05-07T10:18:46;333.83;;;311.90;;
51438;SDS011;38816;51.142;-0.974;2023-05-07T10:21:20;335.23;;;313.05;;
51438;SDS011;38816;51.142;-0.974;2023-05-07T10:23:51;344.58;;;322.05;;
51438;SDS011;38816;51.142;-0.974;2023-05-07T10:26:28;342.85;;;320.45;;
51438;SDS011;38816;51.142;-0.974;2023-05-07T10:28:57;338.95;;;316.88;;
51438;SDS011;38816;51.142;-0.974;2023-05-07T10:31:35;347.85;;;324.65;;
51438;SDS011;38816;51.142;-0.974;2023-05-07T10:34:14;342.35;;;319.85;;
51438;SDS011;38816;51.142;-0.974;2023-05-07T10:36:44;342.17;;;319.70;;
51438;SDS011;38816;51.142;-0.974;2023-05-07T10:39:10;333.92;;;312.05;;
51438;SDS011;38816;51.142;-0.974;2023-05-07T10:41:35;331.55;;;309.75;;
51438;SDS011;38816;51.142;-0.974;2023-05-07T10:44:01;343.27;;;320.90;;
51438;SDS011;38816;51.142;-0.974;2023-05-07T10:46:27;345.45;;;322.92;;
51438;SDS011;38816;51.142;-0.974;2023-05-07T10:51:28;315.60;;;295.00;;
51438;SDS011;38816;51.142;-0.974;2023-05-07T10:54:40;320.63;;;299.67;;
51438;SDS011;38816;51.142;-0.974;2023-05-07T10:56:43;330.30;;;308.70;;
51438;SDS011;38816;51.142;-0.974;2023-05-07T11:01:55;332.15;;;310.48;;
51438;SDS011;38816;51.142;-0.974;2023-05-07T11:04:22;328.77;;;307.33;;
51438;SDS011;38816;51.142;-0.974;2023-05-07T11:15:11;335.42;;;313.52;;
51438;SDS011;38816;51.142;-0.974;2023-05-07T11:17:56;328.30;;;307.00;;
51438;SDS011;38816;51.142;-0.974;2023-05-07T11:24:10;319.17;;;298.50;;
51438;SDS011;38816;51.142;-0.974;2023-05-07T11:26:06;317.08;;;296.55;;
51438;SDS011;38816;51.142;-0.974;2023-05-07T11:28:42;321.58;;;300.75;;
51438;SDS011;38816;51.142;-0.974;2023-05-07T11:31:08;316.33;;;295.70;;
51438;SDS011;38816;51.142;-0.974;2023-05-07T11:33:35;327.48;;;305.92;;
51438;SDS011;38816;51.142;-0.974;2023-05-07T11:36:04;331.33;;;309.75;;
51438;SDS011;38816;51.142;-0.974;2023-05-07T11:38:36;332.95;;;310.88;;
51438;SDS011;38816;51.142;-0.974;2023-05-07T11:41:02;339.80;;;317.73;;
51438;SDS011;38816;51.142;-0.974;2023-05-07T11:43:30;318.45;;;297.52;;
51438;SDS011;38816;51.142;-0.974;2023-05-07T11:46:04;344.70;;;322.15;;
51438;SDS011;38816;51.142;-0.974;2023-05-07T11:48:33;337.33;;;314.98;;
51438;SDS011;38816;51.142;-0.974;2023-05-07T11:51:02;342.38;;;319.85;;
51438;SDS011;38816;51.142;-0.974;2023-05-07T11:53:36;340.08;;;317.85;;
51438;SDS011;38816;51.142;-0.974;2023-05-07T11:56:07;342.70;;;320.23;;
51438;SDS011;38816;51.142;-0.974;2023-05-07T12:01:02;345.85;;;323.20;;
51438;SDS011;38816;51.142;-0.974;2023-05-07T12:03:27;341.33;;;319.05;;
51438;SDS011;38816;51.142;-0.974;2023-05-07T12:05:53;347.17;;;324.38;;
51438;SDS011;38816;51.142;-0.974;2023-05-07T12:08:19;345.08;;;322.35;;
51438;SDS011;38816;51.142;-0.974;2023-05-07T12:10:46;347.33;;;324.55;;
51438;SDS011;38816;51.142;-0.974;2023-05-07T12:13:17;346.25;;;323.45;;
51438;SDS011;38816;51.142;-0.974;2023-05-07T12:15:43;337.60;;;315.40;;
51438;SDS011;38816;51.142;-0.974;2023-05-07T12:18:09;335.35;;;313.40;;
51438;SDS011;38816;51.142;-0.974;2023-05-07T12:20:36;329.90;;;308.48;;
51438;SDS011;38816;51.142;-0.974;2023-05-07T12:23:02;317.25;;;296.35;;
51438;SDS011;38816;51.142;-0.974;2023-05-07T12:25:37;325.75;;;304.15;;
51438;SDS011;38816;51.142;-0.974;2023-05-07T12:28:04;324.35;;;303.17;;
51438;SDS011;38816;51.142;-0.974;2023-05-07T12:30:36;312.65;;;292.38;;
51438;SDS011;38816;51.142;-0.974;2023-05-07T12:33:02;323.02;;;301.67;;
51438;SDS011;38816;51.142;-0.974;2023-05-07T12:35:31;327.70;;;306.20;;
51438;SDS011;38816;51.142;-0.974;2023-05-07T12:38:00;317.77;;;297.08;;
51438;SDS011;38816;51.142;-0.974;2023-05-07T12:40:39;326.25;;;304.77;;
51438;SDS011;38816;51.142;-0.974;2023-05-07T12:43:14;323.35;;;302.35;;
51438;SDS011;38816;51.142;-0.974;2023-05-07T12:45:42;333.95;;;311.88;;
51438;SDS011;38816;51.142;-0.974;2023-05-07T12:48:09;317.88;;;297.20;;
51438;SDS011;38816;51.142;-0.974;2023-05-07T12:50:35;302.52;;;282.95;;
51438;SDS011;38816;51.142;-0.974;2023-05-07T12:53:00;290.05;;;271.05;;
51438;SDS011;38816;51.142;-0.974;2023-05-07T12:55:30;262.40;;;245.63;;
51438;SDS011;38816;51.142;-0.974;2023-05-07T12:57:56;264.10;;;247.25;;
51438;SDS011;38816;51.142;-0.974;2023-05-07T13:00:37;281.88;;;263.88;;
51438;SDS011;38816;51.142;-0.974;2023-05-07T13:03:03;271.67;;;254.07;;
51438;SDS011;38816;51.142;-0.974;2023-05-07T13:05:31;279.98;;;262.02;;
51438;SDS011;38816;51.142;-0.974;2023-05-07T13:07:57;306.77;;;287.00;;
51438;SDS011;38816;51.142;-0.974;2023-05-07T13:10:23;285.00;;;266.73;;
51438;SDS011;38816;51.142;-0.974;2023-05-07T13:12:49;305.40;;;285.58;;
51438;SDS011;38816;51.142;-0.974;2023-05-07T13:15:15;300.02;;;280.65;;
51438;SDS011;38816;51.142;-0.974;2023-05-07T13:17:40;285.10;;;266.70;;
51438;SDS011;38816;51.142;-0.974;2023-05-07T13:20:06;277.00;;;259.08;;
51438;SDS011;38816;51.142;-0.974;2023-05-07T13:22:33;262.42;;;245.70;;
51438;SDS011;38816;51.142;-0.974;2023-05-07T13:24:58;281.08;;;263.02;;
51438;SDS011;38816;51.142;-0.974;2023-05-07T13:27:23;295.25;;;276.40;;
51438;SDS011;38816;51.142;-0.974;2023-05-07T13:29:49;307.73;;;287.55;;
51438;SDS011;38816;51.142;-0.974;2023-05-07T13:32:14;304.35;;;284.77;;
51438;SDS011;38816;51.142;-0.974;2023-05-07T13:34:40;317.80;;;296.77;;
51438;SDS011;38816;51.142;-0.974;2023-05-07T13:37:06;322.00;;;301.10;;
51438;SDS011;38816;51.142;-0.974;2023-05-07T13:39:32;291.95;;;273.13;;
51438;SDS011;38816;51.142;-0.974;2023-05-07T13:41:58;286.50;;;267.98;;
51438;SDS011;38816;51.142;-0.974;2023-05-07T13:44:23;284.83;;;266.50;;
51438;SDS011;38816;51.142;-0.974;2023-05-07T13:46:48;287.27;;;268.83;;
51438;SDS011;38816;51.142;-0.974;2023-05-07T13:49:14;268.90;;;251.57;;
51438;SDS011;38816;51.142;-0.974;2023-05-07T13:51:39;257.58;;;240.70;;
51438;SDS011;38816;51.142;-0.974;2023-05-07T13:54:05;266.33;;;248.75;;
51438;SDS011;38816;51.142;-0.974;2023-05-07T13:56:30;246.88;;;230.73;;
51438;SDS011;38816;51.142;-0.974;2023-05-07T13:58:57;248.40;;;232.45;;